sensor_id;sensor_type;location;lat;lon;timestamp;pressure;altitude;pressure_sealevel;temperature;humidity
13594;BME280;6449;47.666;9.160;2023-05-12T00:01:23;96566.31;;;11.82;100.00
13594;BME280;6449;47.666;9.160;2023-05-12T00:06:16;96566.19;;;11.84;100.00
13594;BME280;6449;47.666;9.160;2023-05-12T00:11:11;96563.34;;;11.75;100.00
13594;BME280;6449;47.666;9.160;2023-05-12T00:16:05;96561.09;;;11.61;100.00
13594;BME280;6449;47.666;9.160;2023-05-12T00:20:59;96559.50;;;11.49;100.00
13594;BME280;6449;47.666;9.160;2023-05-12T00:25:52;96565.41;;;11.41;100.00
13594;BME280;6449;47.666;9.160;2023-05-12T00:30:47;96560.84;;;11.43;100.00
13594;BME280;6449;47.666;9.160;2023-05-12T00:35:40;96557.00;;;11.47;100.00
13594;BME280;6449;47.666;9.160;2023-05-12T00:40:33;96565.47;;;11.30;100.00
13594;BME280;6449;47.666;9.160;2023-05-12T00:45:27;96566.84;;;11.24;100.00
13594;BME280;6449;47.666;9.160;2023-05-12T00:50:22;96570.84;;;11.28;100.00
13594;BME280;6449;47.666;9.160;2023-05-12T00:55:16;96570.28;;;11.25;100.00
13594;BME280;6449;47.666;9.160;2023-05-12T01:00:11;96571.41;;;11.32;100.00
13594;BME280;6449;47.666;9.160;2023-05-12T01:05:05;96572.38;;;11.31;100.00
13594;BME280;6449;47.666;9.160;2023-05-12T01:10:03;96573.53;;;11.17;100.00
13594;BME280;6449;47.666;9.160;2023-05-12T01:14:57;96564.69;;;11.18;100.00
13594;BME280;6449;47.666;9.160;2023-05-12T01:19:55;96566.00;;;11.24;100.00
13594;BME280;6449;47.666;9.160;2023-05-12T01:24:54;96561.91;;;11.31;100.00
13594;BME280;6449;47.666;9.160;2023-05-12T01:29:51;96560.78;;;11.34;100.00
13594;BME280;6449;47.666;9.160;2023-05-12T01:34:45;96559.28;;;11.31;100.00
13594;BME280;6449;47.666;9.160;2023-05-12T01:39:39;96553.13;;;11.42;100.00
13594;BME280;6449;47.666;9.160;2023-05-12T01:44:32;96549.28;;;11.55;100.00
13594;BME280;6449;47.666;9.160;2023-05-12T01:49:27;96556.94;;;11.38;100.00
13594;BME280;6449;47.666;9.160;2023-05-12T01:54:21;96559.28;;;11.31;100.00
13594;BME280;6449;47.666;9.160;2023-05-12T01:59:14;96564.31;;;11.23;100.00
13594;BME280;6449;47.666;9.160;2023-05-12T02:04:08;96566.63;;;11.16;100.00
13594;BME280;6449;47.666;9.160;2023-05-12T02:09:06;96575.78;;;11.22;100.00
13594;BME280;6449;47.666;9.160;2023-05-12T02:13:59;96564.91;;;11.26;100.00
13594;BME280;6449;47.666;9.160;2023-05-12T02:18:52;96561.91;;;11.31;100.00
13594;BME280;6449;47.666;9.160;2023-05-12T02:23:46;96564.97;;;11.36;100.00
13594;BME280;6449;47.666;9.160;2023-05-12T02:28:41;96559.72;;;11.36;100.00
13594;BME280;6449;47.666;9.160;2023-05-12T02:33:34;96558.31;;;11.32;100.00
13594;BME280;6449;47.666;9.160;2023-05-12T02:38:27;96561.91;;;11.31;100.00
13594;BME280;6449;47.666;9.160;2023-05-12T02:43:21;96555.06;;;11.49;100.00
13594;BME280;6449;47.666;9.160;2023-05-12T02:48:15;96562.25;;;11.47;100.00
13594;BME280;6449;47.666;9.160;2023-05-12T02:53:09;96552.88;;;11.54;100.00
13594;BME280;6449;47.666;9.160;2023-05-12T02:58:02;96556.81;;;11.39;100.00
13594;BME280;6449;47.666;9.160;2023-05-12T03:02:55;96560.25;;;11.40;100.00
13594;BME280;6449;47.666;9.160;2023-05-12T03:07:50;96552.38;;;11.40;100.00
13594;BME280;6449;47.666;9.160;2023-05-12T03:12:44;96548.91;;;11.30;100.00
13594;BME280;6449;47.666;9.160;2023-05-12T03:17:37;96551.47;;;11.20;100.00
13594;BME280;6449;47.666;9.160;2023-05-12T03:22:30;96561.97;;;11.20;100.00
13594;BME280;6449;47.666;9.160;2023-05-12T03:27:25;96555.69;;;11.11;100.00
13594;BME280;6449;47.666;9.160;2023-05-12T03:32:18;96557.63;;;11.09;100.00
13594;BME280;6449;47.666;9.160;2023-05-12T03:37:12;96552.91;;;11.13;100.00
13594;BME280;6449;47.666;9.160;2023-05-12T03:42:05;96560.47;;;11.06;100.00
13594;BME280;6449;47.666;9.160;2023-05-12T03:47:00;96550.81;;;11.07;100.00
13594;BME280;6449;47.666;9.160;2023-05-12T03:51:53;96548.91;;;11.09;100.00
13594;BME280;6449;47.666;9.160;2023-05-12T03:56:47;96548.19;;;11.07;100.00
13594;BME280;6449;47.666;9.160;2023-05-12T04:01:40;96558.56;;;11.08;100.00
13594;BME280;6449;47.666;9.160;2023-05-12T04:06:35;96551.66;;;11.07;100.00
13594;BME280;6449;47.666;9.160;2023-05-12T04:11:29;96547.44;;;10.95;100.00
13594;BME280;6449;47.666;9.160;2023-05-12T04:16:22;96544.28;;;11.01;100.00
13594;BME280;6449;47.666;9.160;2023-05-12T04:21:15;96542.44;;;11.13;100.00
13594;BME280;6449;47.666;9.160;2023-05-12T04:26:10;96544.66;;;11.17;100.00
13594;BME280;6449;47.666;9.160;2023-05-12T04:31:04;96551.47;;;11.20;100.00
13594;BME280;6449;47.666;9.160;2023-05-12T04:35:57;96556.78;;;11.30;100.00
13594;BME280;6449;47.666;9.160;2023-05-12T04:40:50;96560.25;;;11.40;100.00
13594;BME280;6449;47.666;9.160;2023-05-12T04:45:45;96550.66;;;11.50;100.00
13594;BME280;6449;47.666;9.160;2023-05-12T04:50:38;96562.41;;;11.46;100.00
13594;BME280;6449;47.666;9.160;2023-05-12T04:55:32;96570.13;;;11.47;100.00
13594;BME280;6449;47.666;9.160;2023-05-12T05:00:25;96578.25;;;11.44;100.00
13594;BME280;6449;47.666;9.160;2023-05-12T05:05:20;96586.78;;;11.37;100.00
13594;BME280;6449;47.666;9.160;2023-05-12T05:10:14;96582.88;;;11.31;100.00
13594;BME280;6449;47.666;9.160;2023-05-12T05:15:09;96593.69;;;11.38;100.00
13594;BME280;6449;47.666;9.160;2023-05-12T05:20:03;96582.44;;;11.26;100.00
13594;BME280;6449;47.666;9.160;2023-05-12T05:25:06;96580.09;;;11.53;100.00
13594;BME280;6449;47.666;9.160;2023-05-12T05:30:00;96584.00;;;11.59;100.00
13594;BME280;6449;47.666;9.160;2023-05-12T05:34:53;96588.72;;;11.86;100.00
13594;BME280;6449;47.666;9.160;2023-05-12T05:39:47;96589.50;;;12.07;100.00
13594;BME280;6449;47.666;9.160;2023-05-12T05:44:41;96593.88;;;11.97;100.00
13594;BME280;6449;47.666;9.160;2023-05-12T05:49:35;96595.81;;;11.95;100.00
13594;BME280;6449;47.666;9.160;2023-05-12T05:54:28;96601.06;;;12.26;100.00
13594;BME280;6449;47.666;9.160;2023-05-12T05:59:21;96612.47;;;12.05;100.00
13594;BME280;6449;47.666;9.160;2023-05-12T06:04:16;96615.03;;;11.96;100.00
13594;BME280;6449;47.666;9.160;2023-05-12T06:09:10;96615.72;;;11.98;100.00
13594;BME280;6449;47.666;9.160;2023-05-12T06:14:04;96616.94;;;12.24;100.00
13594;BME280;6449;47.666;9.160;2023-05-12T06:18:57;96611.41;;;12.27;100.00
13594;BME280;6449;47.666;9.160;2023-05-12T06:23:52;96612.41;;;12.26;100.00
13594;BME280;6449;47.666;9.160;2023-05-12T06:28:47;96607.56;;;12.31;100.00
13594;BME280;6449;47.666;9.160;2023-05-12T06:33:40;96608.31;;;12.53;100.00
13594;BME280;6449;47.666;9.160;2023-05-12T06:38:33;96613.44;;;12.64;100.00
13594;BME280;6449;47.666;9.160;2023-05-12T06:43:28;96619.97;;;12.70;100.00
13594;BME280;6449;47.666;9.160;2023-05-12T06:48:22;96613.88;;;12.98;100.00
13594;BME280;6449;47.666;9.160;2023-05-12T06:53:15;96625.50;;;12.86;100.00
13594;BME280;6449;47.666;9.160;2023-05-12T06:58:08;96620.53;;;13.41;100.00
13594;BME280;6449;47.666;9.160;2023-05-12T07:03:03;96624.13;;;13.69;100.00
13594;BME280;6449;47.666;9.160;2023-05-12T07:07:56;96635.19;;;13.73;100.00
13594;BME280;6449;47.666;9.160;2023-05-12T07:12:50;96625.22;;;14.13;100.00
13594;BME280;6449;47.666;9.160;2023-05-12T07:17:43;96648.72;;;14.34;100.00
13594;BME280;6449;47.666;9.160;2023-05-12T07:22:38;96638.56;;;14.67;100.00
13594;BME280;6449;47.666;9.160;2023-05-12T07:27:31;96651.22;;;14.63;100.00
13594;BME280;6449;47.666;9.160;2023-05-12T07:32:25;96662.72;;;14.72;100.00
13594;BME280;6449;47.666;9.160;2023-05-12T07:37:18;96661.94;;;14.62;100.00
13594;BME280;6449;47.666;9.160;2023-05-12T07:42:13;96651.38;;;14.25;100.00
13594;BME280;6449;47.666;9.160;2023-05-12T07:47:06;96654.91;;;14.98;100.00
13594;BME280;6449;47.666;9.160;2023-05-12T07:52:00;96667.34;;;14.88;100.00
13594;BME280;6449;47.666;9.160;2023-05-12T07:56:53;96662.09;;;14.23;100.00
13594;BME280;6449;47.666;9.160;2023-05-12T08:01:48;96651.31;;;14.44;100.00
13594;BME280;6449;47.666;9.160;2023-05-12T08:06:41;96660.22;;;14.71;100.00
13594;BME280;6449;47.666;9.160;2023-05-12T08:11:35;96670.69;;;15.08;100.00
13594;BME280;6449;47.666;9.160;2023-05-12T08:16:28;96676.84;;;14.99;100.00
13594;BME280;6449;47.666;9.160;2023-05-12T08:21:23;96673.19;;;15.09;100.00
13594;BME280;6449;47.666;9.160;2023-05-12T08:26:16;96680.78;;;14.67;100.00
13594;BME280;6449;47.666;9.160;2023-05-12T08:31:10;96678.81;;;14.69;100.00
13594;BME280;6449;47.666;9.160;2023-05-12T08:36:07;96667.28;;;15.15;100.00
13594;BME280;6449;47.666;9.160;2023-05-12T08:41:13;96676.56;;;15.73;100.00
13594;BME280;6449;47.666;9.160;2023-05-12T08:46:09;96673.41;;;16.21;100.00
13594;BME280;6449;47.666;9.160;2023-05-12T08:51:06;96675.22;;;16.47;100.00
13594;BME280;6449;47.666;9.160;2023-05-12T08:56:05;96679.16;;;16.43;100.00
13594;BME280;6449;47.666;9.160;2023-05-12T09:01:03;96677.88;;;16.89;100.00
13594;BME280;6449;47.666;9.160;2023-05-12T09:05:58;96676.28;;;17.13;100.00
13594;BME280;6449;47.666;9.160;2023-05-12T09:10:55;96677.78;;;17.23;100.00
13594;BME280;6449;47.666;9.160;2023-05-12T09:15:51;96679.53;;;16.98;100.00
13594;BME280;6449;47.666;9.160;2023-05-12T09:20:47;96684.44;;;17.44;100.00
13594;BME280;6449;47.666;9.160;2023-05-12T09:25:41;96688.56;;;17.30;100.00
13594;BME280;6449;47.666;9.160;2023-05-12T09:30:34;96679.13;;;17.27;100.00
13594;BME280;6449;47.666;9.160;2023-05-12T09:35:38;96674.84;;;17.43;100.00
13594;BME280;6449;47.666;9.160;2023-05-12T09:40:42;96679.28;;;17.26;100.00
13594;BME280;6449;47.666;9.160;2023-05-12T09:45:38;96676.63;;;16.67;100.00
13594;BME280;6449;47.666;9.160;2023-05-12T09:50:32;96682.78;;;16.42;100.00
13594;BME280;6449;47.666;9.160;2023-05-12T09:55:38;96682.66;;;16.17;100.00
13594;BME280;6449;47.666;9.160;2023-05-12T10:00:32;96683.72;;;16.07;100.00
13594;BME280;6449;47.666;9.160;2023-05-12T10:05:50;96682.50;;;15.93;100.00
13594;BME280;6449;47.666;9.160;2023-05-12T10:10:50;96678.50;;;15.89;100.00
13594;BME280;6449;47.666;9.160;2023-05-12T10:20:39;96687.56;;;16.12;100.00
13594;BME280;6449;47.666;9.160;2023-05-12T10:25:34;96684.25;;;16.10;100.00
13594;BME280;6449;47.666;9.160;2023-05-12T10:30:28;96673.16;;;16.07;100.00
13594;BME280;6449;47.666;9.160;2023-05-12T10:35:31;96675.34;;;16.11;100.00
13594;BME280;6449;47.666;9.160;2023-05-12T10:40:24;96673.97;;;16.33;100.00
13594;BME280;6449;47.666;9.160;2023-05-12T10:45:19;96673.97;;;16.33;100.00
13594;BME280;6449;47.666;9.160;2023-05-12T10:50:13;96668.69;;;16.33;100.00
13594;BME280;6449;47.666;9.160;2023-05-12T10:55:11;96658.38;;;16.22;100.00
13594;BME280;6449;47.666;9.160;2023-05-12T11:00:12;96662.38;;;16.26;100.00
13594;BME280;6449;47.666;9.160;2023-05-12T11:05:10;96661.72;;;16.32;100.00
13594;BME280;6449;47.666;9.160;2023-05-12T11:10:06;96661.69;;;16.24;100.00
13594;BME280;6449;47.666;9.160;2023-05-12T11:15:03;96666.63;;;16.53;100.00
13594;BME280;6449;47.666;9.160;2023-05-12T11:19:57;96662.66;;;16.91;100.00
13594;BME280;6449;47.666;9.160;2023-05-12T11:24:53;96666.28;;;16.98;100.00
13594;BME280;6449;47.666;9.160;2023-05-12T11:29:56;96662.88;;;17.47;100.00
13594;BME280;6449;47.666;9.160;2023-05-12T11:34:49;96647.81;;;18.04;100.00
13594;BME280;6449;47.666;9.160;2023-05-12T11:39:42;96644.28;;;18.20;100.00
13594;BME280;6449;47.666;9.160;2023-05-12T11:44:46;96657.41;;;18.05;100.00
13594;BME280;6449;47.666;9.160;2023-05-12T11:49:46;96650.97;;;18.00;100.00
13594;BME280;6449;47.666;9.160;2023-05-12T11:54:47;96658.91;;;17.67;100.00
13594;BME280;6449;47.666;9.160;2023-05-12T11:59:43;96670.03;;;17.54;100.00
13594;BME280;6449;47.666;9.160;2023-05-12T12:04:38;96659.59;;;17.37;100.00
13594;BME280;6449;47.666;9.160;2023-05-12T12:09:36;96663.22;;;17.52;100.00
13594;BME280;6449;47.666;9.160;2023-05-12T12:14:31;96660.91;;;17.65;100.00
13594;BME280;6449;47.666;9.160;2023-05-12T12:19:26;96651.13;;;17.33;100.00
13594;BME280;6449;47.666;9.160;2023-05-12T12:24:20;96646.31;;;17.20;100.00
13594;BME280;6449;47.666;9.160;2023-05-12T12:29:13;96648.00;;;17.38;100.00
13594;BME280;6449;47.666;9.160;2023-05-12T12:34:06;96642.34;;;17.24;100.00
13594;BME280;6449;47.666;9.160;2023-05-12T12:39:02;96650.16;;;17.26;100.00
13594;BME280;6449;47.666;9.160;2023-05-12T12:43:55;96645.81;;;17.25;100.00
13594;BME280;6449;47.666;9.160;2023-05-12T12:48:49;96637.06;;;17.41;100.00
13594;BME280;6449;47.666;9.160;2023-05-12T12:53:42;96634.06;;;17.36;100.00
13594;BME280;6449;47.666;9.160;2023-05-12T12:58:38;96628.63;;;17.37;100.00
13594;BME280;6449;47.666;9.160;2023-05-12T13:03:31;96634.25;;;17.50;100.00
13594;BME280;6449;47.666;9.160;2023-05-12T13:08:25;96631.09;;;17.47;100.00
13594;BME280;6449;47.666;9.160;2023-05-12T13:13:18;96634.88;;;17.20;100.00
13594;BME280;6449;47.666;9.160;2023-05-12T13:18:13;96631.88;;;16.98;100.00
13594;BME280;6449;47.666;9.160;2023-05-12T13:23:06;96622.06;;;16.74;100.00
13594;BME280;6449;47.666;9.160;2023-05-12T13:27:59;96625.59;;;16.99;100.00
13594;BME280;6449;47.666;9.160;2023-05-12T13:32:53;96616.50;;;17.02;100.00
13594;BME280;6449;47.666;9.160;2023-05-12T13:37:48;96611.84;;;17.20;100.00
13594;BME280;6449;47.666;9.160;2023-05-12T13:42:41;96597.78;;;17.03;100.00
13594;BME280;6449;47.666;9.160;2023-05-12T13:47:34;96605.75;;;17.20;100.00
13594;BME280;6449;47.666;9.160;2023-05-12T13:52:28;96604.06;;;16.94;100.00
13594;BME280;6449;47.666;9.160;2023-05-12T13:57:23;96595.63;;;17.07;100.00
13594;BME280;6449;47.666;9.160;2023-05-12T14:02:23;96595.47;;;17.25;100.00
13594;BME280;6449;47.666;9.160;2023-05-12T14:07:17;96597.78;;;16.95;100.00
13594;BME280;6449;47.666;9.160;2023-05-12T14:12:11;96594.09;;;16.72;100.00
13594;BME280;6449;47.666;9.160;2023-05-12T14:17:18;96591.91;;;16.67;100.00
13594;BME280;6449;47.666;9.160;2023-05-12T14:22:39;96587.69;;;16.91;100.00
13594;BME280;6449;47.666;9.160;2023-05-12T14:27:51;96594.44;;;16.93;100.00
13594;BME280;6449;47.666;9.160;2023-05-12T14:32:54;96603.75;;;16.89;100.00
13594;BME280;6449;47.666;9.160;2023-05-12T14:37:57;96601.22;;;16.88;100.00
13594;BME280;6449;47.666;9.160;2023-05-12T14:43:02;96599.94;;;17.00;100.00
13594;BME280;6449;47.666;9.160;2023-05-12T14:47:57;96590.56;;;16.63;100.00
13594;BME280;6449;47.666;9.160;2023-05-12T14:52:50;96576.66;;;16.61;100.00
13594;BME280;6449;47.666;9.160;2023-05-12T14:57:44;96587.00;;;16.72;100.00
13594;BME280;6449;47.666;9.160;2023-05-12T15:02:40;96586.03;;;17.06;100.00
13594;BME280;6449;47.666;9.160;2023-05-12T15:12:30;96595.31;;;17.35;100.00
13594;BME280;6449;47.666;9.160;2023-05-12T15:17:24;96598.28;;;17.23;100.00
13594;BME280;6449;47.666;9.160;2023-05-12T15:22:18;96589.53;;;17.23;100.00
13594;BME280;6449;47.666;9.160;2023-05-12T15:27:11;96589.50;;;17.15;100.00
13594;BME280;6449;47.666;9.160;2023-05-12T15:32:06;96596.97;;;17.19;100.00
13594;BME280;6449;47.666;9.160;2023-05-12T15:37:00;96598.63;;;17.12;100.00
13594;BME280;6449;47.666;9.160;2023-05-12T15:41:53;96593.81;;;16.83;100.00
13594;BME280;6449;47.666;9.160;2023-05-12T15:46:47;96598.03;;;16.68;100.00
13594;BME280;6449;47.666;9.160;2023-05-12T15:51:42;96593.56;;;16.68;100.00
13594;BME280;6449;47.666;9.160;2023-05-12T15:56:35;96596.00;;;16.54;100.00
13594;BME280;6449;47.666;9.160;2023-05-12T16:01:29;96596.66;;;16.56;100.00
13594;BME280;6449;47.666;9.160;2023-05-12T16:06:23;96609.41;;;16.60;100.00
13594;BME280;6449;47.666;9.160;2023-05-12T16:11:19;96614.84;;;16.50;100.00
13594;BME280;6449;47.666;9.160;2023-05-12T16:16:13;96609.56;;;16.59;100.00
13594;BME280;6449;47.666;9.160;2023-05-12T16:21:06;96606.41;;;16.47;100.00
13594;BME280;6449;47.666;9.160;2023-05-12T16:26:00;96610.56;;;16.58;100.00
13594;BME280;6449;47.666;9.160;2023-05-12T16:30:55;96607.41;;;16.54;100.00
13594;BME280;6449;47.666;9.160;2023-05-12T16:35:49;96606.41;;;16.47;100.00
13594;BME280;6449;47.666;9.160;2023-05-12T16:40:43;96605.25;;;16.49;100.00
13594;BME280;6449;47.666;9.160;2023-05-12T16:45:41;96615.66;;;16.43;100.00
13594;BME280;6449;47.666;9.160;2023-05-12T16:50:44;96611.47;;;16.40;100.00
13594;BME280;6449;47.666;9.160;2023-05-12T16:55:44;96612.00;;;16.36;100.00
13594;BME280;6449;47.666;9.160;2023-05-12T17:00:40;96609.34;;;16.36;100.00
13594;BME280;6449;47.666;9.160;2023-05-12T17:05:41;96620.41;;;16.39;100.00
13594;BME280;6449;47.666;9.160;2023-05-12T17:10:35;96625.88;;;16.38;100.00
13594;BME280;6449;47.666;9.160;2023-05-12T17:15:32;96633.75;;;16.30;100.00
13594;BME280;6449;47.666;9.160;2023-05-12T17:20:26;96634.44;;;16.32;100.00
13594;BME280;6449;47.666;9.160;2023-05-12T17:25:30;96637.09;;;16.32;100.00
13594;BME280;6449;47.666;9.160;2023-05-12T17:30:32;96630.63;;;16.26;100.00
13594;BME280;6449;47.666;9.160;2023-05-12T17:35:27;96634.88;;;16.19;100.00
13594;BME280;6449;47.666;9.160;2023-05-12T17:40:24;96640.38;;;16.26;100.00
13594;BME280;6449;47.666;9.160;2023-05-12T17:45:21;96636.19;;;16.15;100.00
13594;BME280;6449;47.666;9.160;2023-05-12T17:50:23;96642.78;;;16.11;100.00
13594;BME280;6449;47.666;9.160;2023-05-12T17:55:17;96647.03;;;16.04;100.00
13594;BME280;6449;47.666;9.160;2023-05-12T18:00:17;96648.13;;;15.93;100.00
13594;BME280;6449;47.666;9.160;2023-05-12T18:05:10;96659.31;;;15.87;100.00
13594;BME280;6449;47.666;9.160;2023-05-12T18:10:06;96667.22;;;15.87;100.00
13594;BME280;6449;47.666;9.160;2023-05-12T18:15:00;96669.84;;;15.79;100.00
13594;BME280;6449;47.666;9.160;2023-05-12T18:19:56;96674.22;;;15.70;100.00
13594;BME280;6449;47.666;9.160;2023-05-12T18:24:50;96688.06;;;15.64;100.00
13594;BME280;6449;47.666;9.160;2023-05-12T18:29:45;96680.50;;;15.51;100.00
13594;BME280;6449;47.666;9.160;2023-05-12T18:34:39;96688.41;;;15.51;100.00
13594;BME280;6449;47.666;9.160;2023-05-12T18:39:36;96692.63;;;15.44;100.00
13594;BME280;6449;47.666;9.160;2023-05-12T18:44:29;96699.97;;;15.32;100.00
13594;BME280;6449;47.666;9.160;2023-05-12T18:49:23;96694.53;;;15.34;100.00
13594;BME280;6449;47.666;9.160;2023-05-12T18:54:16;96703.97;;;15.36;100.00
13594;BME280;6449;47.666;9.160;2023-05-12T18:59:11;96711.72;;;15.38;100.00
13594;BME280;6449;47.666;9.160;2023-05-12T19:04:04;96718.13;;;15.17;100.00
13594;BME280;6449;47.666;9.160;2023-05-12T19:08:58;96727.03;;;15.16;100.00
13594;BME280;6449;47.666;9.160;2023-05-12T19:13:51;96721.75;;;15.16;100.00
13594;BME280;6449;47.666;9.160;2023-05-12T19:18:46;96737.66;;;15.07;100.00
13594;BME280;6449;47.666;9.160;2023-05-12T19:23:40;96741.31;;;14.96;100.00
13594;BME280;6449;47.666;9.160;2023-05-12T19:28:33;96746.47;;;14.98;100.00
13594;BME280;6449;47.666;9.160;2023-05-12T19:33:28;96749.38;;;14.77;100.00
13594;BME280;6449;47.666;9.160;2023-05-12T19:38:24;96757.56;;;14.74;100.00
13594;BME280;6449;47.666;9.160;2023-05-12T19:43:20;96766.66;;;14.61;100.00
13594;BME280;6449;47.666;9.160;2023-05-12T19:48:14;96763.28;;;14.59;100.00
13594;BME280;6449;47.666;9.160;2023-05-12T19:53:08;96758.97;;;14.68;100.00
13594;BME280;6449;47.666;9.160;2023-05-12T19:58:03;96766.50;;;14.63;100.00
13594;BME280;6449;47.666;9.160;2023-05-12T20:02:59;96772.06;;;14.60;100.00
13594;BME280;6449;47.666;9.160;2023-05-12T20:07:55;96774.84;;;14.58;100.00
13594;BME280;6449;47.666;9.160;2023-05-12T20:12:51;96781.00;;;14.49;100.00
13594;BME280;6449;47.666;9.160;2023-05-12T20:17:47;96785.56;;;14.47;100.00
13594;BME280;6449;47.666;9.160;2023-05-12T20:22:40;96778.09;;;14.33;100.00
13594;BME280;6449;47.666;9.160;2023-05-12T20:27:34;96789.59;;;14.32;100.00
13594;BME280;6449;47.666;9.160;2023-05-12T20:32:27;96800.56;;;14.27;100.00
13594;BME280;6449;47.666;9.160;2023-05-12T20:37:23;96798.78;;;14.28;100.00
13594;BME280;6449;47.666;9.160;2023-05-12T20:42:16;96796.56;;;14.13;100.00
13594;BME280;6449;47.666;9.160;2023-05-12T20:47:10;96797.66;;;14.11;100.00
13594;BME280;6449;47.666;9.160;2023-05-12T20:52:05;96800.19;;;14.12;100.00
13594;BME280;6449;47.666;9.160;2023-05-12T20:57:09;96806.28;;;14.03;100.00
13594;BME280;6449;47.666;9.160;2023-05-12T21:02:30;96808.09;;;14.03;100.00
13594;BME280;6449;47.666;9.160;2023-05-12T21:07:24;96800.19;;;13.83;100.00
13594;BME280;6449;47.666;9.160;2023-05-12T21:12:18;96798.00;;;13.69;100.00
13594;BME280;6449;47.666;9.160;2023-05-12T21:17:21;96798.25;;;13.66;100.00
13594;BME280;6449;47.666;9.160;2023-05-12T21:22:19;96808.09;;;13.93;100.00
13594;BME280;6449;47.666;9.160;2023-05-12T21:27:14;96808.53;;;13.69;100.00
13594;BME280;6449;47.666;9.160;2023-05-12T21:32:19;96806.00;;;13.58;100.00
13594;BME280;6449;47.666;9.160;2023-05-12T21:37:13;96811.28;;;13.48;100.00
13594;BME280;6449;47.666;9.160;2023-05-12T21:42:06;96804.88;;;13.51;100.00
13594;BME280;6449;47.666;9.160;2023-05-12T21:47:00;96810.00;;;13.52;100.00
13594;BME280;6449;47.666;9.160;2023-05-12T21:51:56;96799.91;;;13.48;100.00
13594;BME280;6449;47.666;9.160;2023-05-12T21:56:50;96805.69;;;13.42;100.00
13594;BME280;6449;47.666;9.160;2023-05-12T22:01:43;96805.41;;;13.35;100.00
13594;BME280;6449;47.666;9.160;2023-05-12T22:06:37;96804.72;;;13.33;100.00
13594;BME280;6449;47.666;9.160;2023-05-12T22:11:31;96804.03;;;13.31;100.00
13594;BME280;6449;47.666;9.160;2023-05-12T22:16:25;96802.00;;;13.14;100.00
13594;BME280;6449;47.666;9.160;2023-05-12T22:21:33;96799.59;;;13.22;100.00
13594;BME280;6449;47.666;9.160;2023-05-12T22:26:27;96794.91;;;13.04;100.00
13594;BME280;6449;47.666;9.160;2023-05-12T22:31:23;96797.00;;;13.01;100.00
13594;BME280;6449;47.666;9.160;2023-05-12T22:37:03;96803.06;;;12.92;100.00
13594;BME280;6449;47.666;9.160;2023-05-12T22:42:17;96796.81;;;12.93;100.00
13594;BME280;6449;47.666;9.160;2023-05-12T22:47:15;96798.09;;;12.98;100.00
13594;BME280;6449;47.666;9.160;2023-05-12T22:52:20;96796.81;;;12.93;100.00
13594;BME280;6449;47.666;9.160;2023-05-12T22:57:13;96800.38;;;12.82;100.00
13594;BME280;6449;47.666;9.160;2023-05-12T23:02:07;96800.25;;;12.83;100.00
13594;BME280;6449;47.666;9.160;2023-05-12T23:07:02;96800.78;;;12.77;100.00
13594;BME280;6449;47.666;9.160;2023-05-12T23:11:57;96803.16;;;12.50;100.00
13594;BME280;6449;47.666;9.160;2023-05-12T23:16:52;96800.13;;;12.54;100.00
13594;BME280;6449;47.666;9.160;2023-05-12T23:21:48;96798.00;;;12.69;100.00
13594;BME280;6449;47.666;9.160;2023-05-12T23:26:45;96803.53;;;12.76;100.00
13594;BME280;6449;47.666;9.160;2023-05-12T23:31:38;96794.97;;;12.74;100.00
13594;BME280;6449;47.666;9.160;2023-05-12T23:36:32;96784.88;;;12.79;100.00
13594;BME280;6449;47.666;9.160;2023-05-12T23:41:25;96785.38;;;12.73;100.00
13594;BME280;6449;47.666;9.160;2023-05-12T23:46:24;96783.19;;;12.68;100.00
13594;BME280;6449;47.666;9.160;2023-05-12T23:51:18;96769.78;;;12.81;100.00
13594;BME280;6449;47.666;9.160;2023-05-12T23:56:11;96767.34;;;12.58;100.00
